sensor_id;sensor_type;location;lat;lon;timestamp;temperature;humidity
16625;DHT22;8426;48.496;9.098;2024-01-10T00:02:57;-7.10;99.90
16625;DHT22;8426;48.496;9.098;2024-01-10T00:08:01;-7.00;99.90
16625;DHT22;8426;48.496;9.098;2024-01-10T00:13:06;-6.90;99.90
16625;DHT22;8426;48.496;9.098;2024-01-10T00:18:10;-6.70;99.90
16625;DHT22;8426;48.496;9.098;2024-01-10T00:23:13;-6.60;99.90
16625;DHT22;8426;48.496;9.098;2024-01-10T00:28:19;-6.70;99.90
16625;DHT22;8426;48.496;9.098;2024-01-10T00:33:23;-6.60;99.90
16625;DHT22;8426;48.496;9.098;2024-01-10T00:38:26;-6.60;99.90
16625;DHT22;8426;48.496;9.098;2024-01-10T00:43:32;-6.50;99.90
16625;DHT22;8426;48.496;9.098;2024-01-10T00:48:36;-6.50;99.90
16625;DHT22;8426;48.496;9.098;2024-01-10T00:53:39;-6.40;99.90
16625;DHT22;8426;48.496;9.098;2024-01-10T00:58:46;-6.40;99.90
16625;DHT22;8426;48.496;9.098;2024-01-10T01:03:50;-6.30;99.90
16625;DHT22;8426;48.496;9.098;2024-01-10T01:08:54;-6.30;99.90
16625;DHT22;8426;48.496;9.098;2024-01-10T01:13:59;-6.20;99.90
16625;DHT22;8426;48.496;9.098;2024-01-10T01:19:03;-6.20;99.90
16625;DHT22;8426;48.496;9.098;2024-01-10T01:24:07;-6.20;99.90
16625;DHT22;8426;48.496;9.098;2024-01-10T01:29:12;-6.20;99.90
16625;DHT22;8426;48.496;9.098;2024-01-10T01:34:15;-6.10;99.90
16625;DHT22;8426;48.496;9.098;2024-01-10T01:39:27;-6.20;99.90
16625;DHT22;8426;48.496;9.098;2024-01-10T01:44:32;-6.20;99.90
16625;DHT22;8426;48.496;9.098;2024-01-10T01:49:36;-6.10;99.90
16625;DHT22;8426;48.496;9.098;2024-01-10T01:54:40;-6.00;99.90
16625;DHT22;8426;48.496;9.098;2024-01-10T01:59:46;-6.00;99.90
16625;DHT22;8426;48.496;9.098;2024-01-10T02:04:49;-6.00;99.90
16625;DHT22;8426;48.496;9.098;2024-01-10T02:09:54;-5.90;99.90
16625;DHT22;8426;48.496;9.098;2024-01-10T02:14:59;-5.80;99.90
16625;DHT22;8426;48.496;9.098;2024-01-10T02:20:10;-5.70;99.90
16625;DHT22;8426;48.496;9.098;2024-01-10T02:25:15;-5.70;99.90
16625;DHT22;8426;48.496;9.098;2024-01-10T02:30:18;-5.60;99.90
16625;DHT22;8426;48.496;9.098;2024-01-10T02:35:23;-5.60;99.90
16625;DHT22;8426;48.496;9.098;2024-01-10T02:40:30;-5.60;99.90
16625;DHT22;8426;48.496;9.098;2024-01-10T02:45:34;-5.60;99.90
16625;DHT22;8426;48.496;9.098;2024-01-10T02:50:39;-5.50;99.90
16625;DHT22;8426;48.496;9.098;2024-01-10T02:55:44;-5.50;99.90
16625;DHT22;8426;48.496;9.098;2024-01-10T03:00:49;-5.60;99.90
16625;DHT22;8426;48.496;9.098;2024-01-10T03:05:53;-5.70;99.90
16625;DHT22;8426;48.496;9.098;2024-01-10T03:11:00;-5.70;99.90
16625;DHT22;8426;48.496;9.098;2024-01-10T03:16:04;-5.80;99.90
16625;DHT22;8426;48.496;9.098;2024-01-10T03:21:08;-5.90;99.90
16625;DHT22;8426;48.496;9.098;2024-01-10T03:26:13;-5.90;99.90
16625;DHT22;8426;48.496;9.098;2024-01-10T03:31:17;-6.00;99.90
16625;DHT22;8426;48.496;9.098;2024-01-10T03:36:21;-5.90;99.90
16625;DHT22;8426;48.496;9.098;2024-01-10T03:41:26;-5.90;99.90
16625;DHT22;8426;48.496;9.098;2024-01-10T03:46:29;-5.80;99.90
16625;DHT22;8426;48.496;9.098;2024-01-10T03:51:33;-5.80;99.90
16625;DHT22;8426;48.496;9.098;2024-01-10T03:56:38;-5.70;99.90
16625;DHT22;8426;48.496;9.098;2024-01-10T04:01:43;-5.70;99.90
16625;DHT22;8426;48.496;9.098;2024-01-10T04:06:47;-5.70;99.90
16625;DHT22;8426;48.496;9.098;2024-01-10T04:11:52;-5.60;99.90
16625;DHT22;8426;48.496;9.098;2024-01-10T04:16:55;-5.60;99.90
16625;DHT22;8426;48.496;9.098;2024-01-10T04:21:59;-5.60;99.90
16625;DHT22;8426;48.496;9.098;2024-01-10T04:27:05;-5.50;99.90
16625;DHT22;8426;48.496;9.098;2024-01-10T04:32:12;-5.50;99.90
16625;DHT22;8426;48.496;9.098;2024-01-10T04:37:15;-5.40;99.90
16625;DHT22;8426;48.496;9.098;2024-01-10T04:42:20;-5.30;99.90
16625;DHT22;8426;48.496;9.098;2024-01-10T04:47:24;-5.20;99.90
16625;DHT22;8426;48.496;9.098;2024-01-10T04:52:29;-5.10;99.90
16625;DHT22;8426;48.496;9.098;2024-01-10T04:57:36;-5.10;99.90
16625;DHT22;8426;48.496;9.098;2024-01-10T05:02:40;-5.10;99.90
16625;DHT22;8426;48.496;9.098;2024-01-10T05:07:44;-5.20;99.90
16625;DHT22;8426;48.496;9.098;2024-01-10T05:12:49;-5.20;99.90
16625;DHT22;8426;48.496;9.098;2024-01-10T05:17:53;-5.20;99.90
16625;DHT22;8426;48.496;9.098;2024-01-10T05:22:56;-5.30;99.90
16625;DHT22;8426;48.496;9.098;2024-01-10T05:28:03;-5.30;99.90
16625;DHT22;8426;48.496;9.098;2024-01-10T05:33:06;-5.40;99.90
16625;DHT22;8426;48.496;9.098;2024-01-10T05:38:11;-5.50;99.90
16625;DHT22;8426;48.496;9.098;2024-01-10T05:43:16;-5.60;99.90
16625;DHT22;8426;48.496;9.098;2024-01-10T05:48:20;-5.80;99.90
16625;DHT22;8426;48.496;9.098;2024-01-10T05:53:25;-5.90;99.90
16625;DHT22;8426;48.496;9.098;2024-01-10T05:58:31;-6.10;99.90
16625;DHT22;8426;48.496;9.098;2024-01-10T06:03:35;-6.20;99.90
16625;DHT22;8426;48.496;9.098;2024-01-10T06:08:38;-6.30;99.90
16625;DHT22;8426;48.496;9.098;2024-01-10T06:13:44;-6.50;99.90
16625;DHT22;8426;48.496;9.098;2024-01-10T06:18:58;-6.40;99.90
16625;DHT22;8426;48.496;9.098;2024-01-10T06:24:02;-6.50;99.90
16625;DHT22;8426;48.496;9.098;2024-01-10T06:29:07;-6.70;99.90
16625;DHT22;8426;48.496;9.098;2024-01-10T06:34:11;-6.70;99.90
16625;DHT22;8426;48.496;9.098;2024-01-10T06:39:15;-6.90;99.90
16625;DHT22;8426;48.496;9.098;2024-01-10T06:44:23;-6.90;99.90
16625;DHT22;8426;48.496;9.098;2024-01-10T06:49:33;-6.90;99.90
16625;DHT22;8426;48.496;9.098;2024-01-10T06:54:37;-6.90;99.90
16625;DHT22;8426;48.496;9.098;2024-01-10T06:59:42;-6.90;99.90
16625;DHT22;8426;48.496;9.098;2024-01-10T07:04:46;-6.90;99.90
16625;DHT22;8426;48.496;9.098;2024-01-10T07:22:51;-6.90;99.90
16625;DHT22;8426;48.496;9.098;2024-01-10T07:27:55;-6.70;99.90
16625;DHT22;8426;48.496;9.098;2024-01-10T07:32:58;-6.50;99.90
16625;DHT22;8426;48.496;9.098;2024-01-10T07:38:04;-6.40;99.90
16625;DHT22;8426;48.496;9.098;2024-01-10T07:43:09;-6.30;99.90
16625;DHT22;8426;48.496;9.098;2024-01-10T12:22:33;-0.80;99.90
16625;DHT22;8426;48.496;9.098;2024-01-10T12:27:37;-0.50;99.90
16625;DHT22;8426;48.496;9.098;2024-01-10T12:58:13;-0.10;99.90
16625;DHT22;8426;48.496;9.098;2024-01-10T13:03:17;-0.20;99.90
16625;DHT22;8426;48.496;9.098;2024-01-10T13:40:17;0.30;99.90
16625;DHT22;8426;48.496;9.098;2024-01-10T13:45:26;0.30;99.90
16625;DHT22;8426;48.496;9.098;2024-01-10T13:50:32;0.10;99.90
16625;DHT22;8426;48.496;9.098;2024-01-10T13:55:38;0.30;99.90
16625;DHT22;8426;48.496;9.098;2024-01-10T14:00:44;0.20;99.90
16625;DHT22;8426;48.496;9.098;2024-01-10T14:05:51;0.20;99.90
16625;DHT22;8426;48.496;9.098;2024-01-10T14:11:09;0.10;99.90
16625;DHT22;8426;48.496;9.098;2024-01-10T14:16:13;0.10;99.90
16625;DHT22;8426;48.496;9.098;2024-01-10T14:21:33;0.10;99.90
16625;DHT22;8426;48.496;9.098;2024-01-10T14:26:48;0.00;99.90
16625;DHT22;8426;48.496;9.098;2024-01-10T14:32:24;0.00;99.90
16625;DHT22;8426;48.496;9.098;2024-01-10T14:37:28;0.00;99.90
16625;DHT22;8426;48.496;9.098;2024-01-10T14:42:36;-0.10;99.90
16625;DHT22;8426;48.496;9.098;2024-01-10T14:47:40;0.00;99.90
16625;DHT22;8426;48.496;9.098;2024-01-10T14:52:44;-0.10;99.90
16625;DHT22;8426;48.496;9.098;2024-01-10T14:57:49;-0.20;99.90
16625;DHT22;8426;48.496;9.098;2024-01-10T15:02:53;-0.20;99.90
16625;DHT22;8426;48.496;9.098;2024-01-10T15:07:57;-0.30;99.90
16625;DHT22;8426;48.496;9.098;2024-01-10T15:13:03;-0.40;99.90
16625;DHT22;8426;48.496;9.098;2024-01-10T15:18:27;-0.60;99.90
16625;DHT22;8426;48.496;9.098;2024-01-10T15:23:31;-0.70;99.90
16625;DHT22;8426;48.496;9.098;2024-01-10T15:28:37;-0.80;99.90
16625;DHT22;8426;48.496;9.098;2024-01-10T15:33:40;-0.90;99.90
16625;DHT22;8426;48.496;9.098;2024-01-10T15:38:45;-1.10;99.90
16625;DHT22;8426;48.496;9.098;2024-01-10T15:43:50;-1.30;99.90
16625;DHT22;8426;48.496;9.098;2024-01-10T15:48:55;-1.40;99.90
16625;DHT22;8426;48.496;9.098;2024-01-10T15:53:59;-1.60;99.90
16625;DHT22;8426;48.496;9.098;2024-01-10T15:59:05;-1.60;99.90
16625;DHT22;8426;48.496;9.098;2024-01-10T16:04:11;-1.90;99.90
16625;DHT22;8426;48.496;9.098;2024-01-10T16:09:22;-2.10;99.90
16625;DHT22;8426;48.496;9.098;2024-01-10T16:14:27;-2.30;99.90
16625;DHT22;8426;48.496;9.098;2024-01-10T16:19:31;-2.40;99.90
16625;DHT22;8426;48.496;9.098;2024-01-10T16:24:35;-2.40;99.90
16625;DHT22;8426;48.496;9.098;2024-01-10T16:29:41;-2.40;99.90
16625;DHT22;8426;48.496;9.098;2024-01-10T16:34:46;-2.50;99.90
16625;DHT22;8426;48.496;9.098;2024-01-10T16:39:50;-2.50;99.90
16625;DHT22;8426;48.496;9.098;2024-01-10T16:44:59;-2.50;99.90
16625;DHT22;8426;48.496;9.098;2024-01-10T16:50:05;-2.70;99.90
16625;DHT22;8426;48.496;9.098;2024-01-10T16:55:09;-2.80;99.90
16625;DHT22;8426;48.496;9.098;2024-01-10T17:00:16;-3.00;99.90
16625;DHT22;8426;48.496;9.098;2024-01-10T17:05:21;-3.20;99.90
16625;DHT22;8426;48.496;9.098;2024-01-10T17:10:24;-3.30;99.90
16625;DHT22;8426;48.496;9.098;2024-01-10T17:15:31;-3.20;99.90
16625;DHT22;8426;48.496;9.098;2024-01-10T17:20:35;-3.30;99.90
16625;DHT22;8426;48.496;9.098;2024-01-10T17:25:39;-3.40;99.90
16625;DHT22;8426;48.496;9.098;2024-01-10T17:30:44;-3.50;99.90
16625;DHT22;8426;48.496;9.098;2024-01-10T17:35:48;-3.70;99.90
16625;DHT22;8426;48.496;9.098;2024-01-10T17:40:52;-3.80;99.90
16625;DHT22;8426;48.496;9.098;2024-01-10T17:45:58;-3.90;99.90
16625;DHT22;8426;48.496;9.098;2024-01-10T17:51:03;-4.00;99.90
16625;DHT22;8426;48.496;9.098;2024-01-10T17:56:07;-4.10;99.90
16625;DHT22;8426;48.496;9.098;2024-01-10T18:01:13;-4.10;99.90
16625;DHT22;8426;48.496;9.098;2024-01-10T18:06:16;-4.10;99.90
16625;DHT22;8426;48.496;9.098;2024-01-10T18:11:20;-4.00;99.90
16625;DHT22;8426;48.496;9.098;2024-01-10T18:16:26;-4.00;99.90
16625;DHT22;8426;48.496;9.098;2024-01-10T18:21:30;-4.10;99.90
16625;DHT22;8426;48.496;9.098;2024-01-10T18:26:34;-4.20;99.90
16625;DHT22;8426;48.496;9.098;2024-01-10T18:31:40;-4.30;99.90
16625;DHT22;8426;48.496;9.098;2024-01-10T18:36:44;-4.30;99.90
16625;DHT22;8426;48.496;9.098;2024-01-10T18:41:47;-4.40;99.90
16625;DHT22;8426;48.496;9.098;2024-01-10T18:46:56;-4.50;99.90
16625;DHT22;8426;48.496;9.098;2024-01-10T18:52:00;-4.50;99.90
16625;DHT22;8426;48.496;9.098;2024-01-10T18:57:07;-4.50;99.90
16625;DHT22;8426;48.496;9.098;2024-01-10T19:02:15;-4.50;99.90
16625;DHT22;8426;48.496;9.098;2024-01-10T19:07:19;-4.50;99.90
16625;DHT22;8426;48.496;9.098;2024-01-10T19:12:23;-4.60;99.90
16625;DHT22;8426;48.496;9.098;2024-01-10T19:17:29;-4.60;99.90
16625;DHT22;8426;48.496;9.098;2024-01-10T19:22:33;-4.60;99.90
16625;DHT22;8426;48.496;9.098;2024-01-10T19:27:37;-4.60;99.90
16625;DHT22;8426;48.496;9.098;2024-01-10T19:32:42;-4.70;99.90
16625;DHT22;8426;48.496;9.098;2024-01-10T19:37:46;-4.70;99.90
16625;DHT22;8426;48.496;9.098;2024-01-10T19:42:49;-4.70;99.90
16625;DHT22;8426;48.496;9.098;2024-01-10T19:47:55;-4.80;99.90
16625;DHT22;8426;48.496;9.098;2024-01-10T19:52:59;-4.90;99.90
16625;DHT22;8426;48.496;9.098;2024-01-10T19:58:03;-4.90;99.90
16625;DHT22;8426;48.496;9.098;2024-01-10T20:03:08;-5.00;99.90
16625;DHT22;8426;48.496;9.098;2024-01-10T20:08:11;-4.90;99.90
16625;DHT22;8426;48.496;9.098;2024-01-10T20:13:15;-4.90;99.90
16625;DHT22;8426;48.496;9.098;2024-01-10T20:18:21;-5.00;99.90
16625;DHT22;8426;48.496;9.098;2024-01-10T20:23:25;-5.00;99.90
16625;DHT22;8426;48.496;9.098;2024-01-10T20:28:29;-5.00;99.90
16625;DHT22;8426;48.496;9.098;2024-01-10T20:33:34;-5.10;99.90
16625;DHT22;8426;48.496;9.098;2024-01-10T20:38:38;-5.10;99.90
16625;DHT22;8426;48.496;9.098;2024-01-10T20:43:42;-5.20;99.90
16625;DHT22;8426;48.496;9.098;2024-01-10T20:48:50;-5.20;99.90
16625;DHT22;8426;48.496;9.098;2024-01-10T20:53:57;-5.30;99.90
16625;DHT22;8426;48.496;9.098;2024-01-10T20:59:02;-5.30;99.90
16625;DHT22;8426;48.496;9.098;2024-01-10T21:04:08;-5.30;99.90
16625;DHT22;8426;48.496;9.098;2024-01-10T21:09:13;-5.30;99.90
16625;DHT22;8426;48.496;9.098;2024-01-10T21:14:17;-5.30;99.90
16625;DHT22;8426;48.496;9.098;2024-01-10T21:19:26;-5.30;99.90
16625;DHT22;8426;48.496;9.098;2024-01-10T21:24:31;-5.30;99.90
16625;DHT22;8426;48.496;9.098;2024-01-10T21:29:36;-5.40;99.90
16625;DHT22;8426;48.496;9.098;2024-01-10T21:34:41;-5.50;99.90
16625;DHT22;8426;48.496;9.098;2024-01-10T21:39:45;-5.50;99.90
16625;DHT22;8426;48.496;9.098;2024-01-10T21:44:49;-5.60;99.90
16625;DHT22;8426;48.496;9.098;2024-01-10T21:49:54;-5.60;99.90
16625;DHT22;8426;48.496;9.098;2024-01-10T21:54:58;-5.70;99.90
16625;DHT22;8426;48.496;9.098;2024-01-10T22:00:03;-5.80;99.90
16625;DHT22;8426;48.496;9.098;2024-01-10T22:05:10;-5.80;99.90
16625;DHT22;8426;48.496;9.098;2024-01-10T22:10:16;-5.80;99.90
16625;DHT22;8426;48.496;9.098;2024-01-10T22:15:21;-5.80;99.90
16625;DHT22;8426;48.496;9.098;2024-01-10T22:20:26;-5.70;99.90
16625;DHT22;8426;48.496;9.098;2024-01-10T22:25:31;-5.80;99.90
16625;DHT22;8426;48.496;9.098;2024-01-10T22:30:35;-5.80;99.90
16625;DHT22;8426;48.496;9.098;2024-01-10T22:35:40;-5.90;99.90
16625;DHT22;8426;48.496;9.098;2024-01-10T22:40:44;-6.00;99.90
16625;DHT22;8426;48.496;9.098;2024-01-10T22:45:47;-5.90;99.90
16625;DHT22;8426;48.496;9.098;2024-01-10T22:50:52;-6.00;99.90
16625;DHT22;8426;48.496;9.098;2024-01-10T22:55:56;-6.00;99.90
16625;DHT22;8426;48.496;9.098;2024-01-10T23:01:02;-6.10;99.90
16625;DHT22;8426;48.496;9.098;2024-01-10T23:06:07;-6.20;99.90
16625;DHT22;8426;48.496;9.098;2024-01-10T23:11:11;-6.20;99.90
16625;DHT22;8426;48.496;9.098;2024-01-10T23:16:15;-6.30;99.90
16625;DHT22;8426;48.496;9.098;2024-01-10T23:21:20;-6.40;99.90
16625;DHT22;8426;48.496;9.098;2024-01-10T23:26:24;-6.30;99.90
16625;DHT22;8426;48.496;9.098;2024-01-10T23:31:29;-6.30;99.90
16625;DHT22;8426;48.496;9.098;2024-01-10T23:36:34;-6.30;99.90
16625;DHT22;8426;48.496;9.098;2024-01-10T23:41:37;-6.40;99.90
16625;DHT22;8426;48.496;9.098;2024-01-10T23:46:41;-6.50;99.90
16625;DHT22;8426;48.496;9.098;2024-01-10T23:51:47;-6.50;99.90
16625;DHT22;8426;48.496;9.098;2024-01-10T23:56:51;-6.50;99.90
